Friday, March 27, 2015, 7:53 AM EDT

KRDG, Reading Regional Airport

Location: Reading, PA, United States Lat: 40.367
Local Time: 7:53 AM EDT (11:53 GMT) Lon: -75.967
Time Zone: US/Eastern Elev: 344 ft

Show me the last for .
Show Decoded

2015-03-27 06:54 METAR KRDG 271054Z AUTO 32006KT 10SM OVC090 04/00 A2978 RMK AO2 SLP091 T00390000
                 =
2015-03-27 05:54 METAR KRDG 270954Z 35006KT 10SM SCT055 BKN070 OVC090 04/02 A2978 =
2015-03-27 05:14 METAR KRDG 270914Z 33008KT 10SM -RA SCT024 BKN034 OVC041 05/03 A2980 RMK AO2
                 P0000 T00500028 =
2015-03-27 04:54 METAR KRDG 270854Z 34006KT 10SM -RA BKN021 OVC026 05/03 A2978 RMK AO2 SLP089
                 P0004 60008 T00500028 51010 =
2015-03-27 04:33 METAR KRDG 270833Z 32005KT 10SM -RA BKN021 OVC029 05/03 A2979 RMK AO2 PRESRR
                 P0002 T00500028 =
2015-03-27 03:54 METAR KRDG 270754Z 33006KT 10SM -RA SCT022 OVC037 05/03 A2976 =
2015-03-27 02:54 METAR KRDG 270654Z 31005KT 10SM -RA BKN022 BKN060 OVC070 06/03 A2978 RMK AO2
                 SLP091 P0002 T00560028 =
2015-03-27 01:54 METAR KRDG 270554Z 32008KT 10SM -RA OVC022 06/03 A2975 RMK AO2 SLP080 P0003
                 60015 T00610033 10117 20061 50006 =
2015-03-27 01:08 METAR KRDG 270508Z 35007KT 10SM -RA BKN024 OVC085 06/03 A2975 =
2015-03-27 00:54 METAR KRDG 270454Z 31007KT 10SM -RA FEW024 SCT080 OVC090 06/03 A2976 RMK AO2
                 RAB26 SLP082 P0000 T00610033 401890000 =
2015-03-26 23:54 METAR KRDG 270354Z 33010KT 10SM OVC100 07/03 A2973 =
2015-03-26 22:54 METAR KRDG 270254Z 33013KT 10SM BKN090 07/04 A2973 RMK AO2 SLP075 60012
                 T00720039 53029 =
2015-03-26 22:33 METAR KRDG 270233Z 32011KT 10SM SCT018 OVC085 08/04 A2972 RMK AO2 T00780044 =
2015-03-26 22:21 METAR KRDG 270221Z 34008KT 10SM BKN020 OVC075 08/05 A2971 RMK AO2 T00830050 =
2015-03-26 22:10 METAR KRDG 270210Z 34010KT 10SM SCT022 OVC075 08/05 A2970 RMK AO2 T00830050 =
2015-03-26 21:54 METAR KRDG 270154Z 34012KT 10SM BKN022 OVC080 09/06 A2971 RMK AO2 RAE47 SLP067
                 P0000 T00940061 =
2015-03-26 21:29 METAR KRDG 270129Z 33012KT 10SM -RA BKN020 OVC075 10/07 A2970 RMK AO2 P0000
                 T01000072 =
2015-03-26 20:54 METAR KRDG 270054Z 33007KT 6SM -RA BR OVC055 11/09 A2966 RMK AO2 SLP051 P0012
                 T01060089 =
2015-03-26 20:04 METAR KRDG 270004Z 33005KT 3SM RA BR FEW031 SCT041 OVC048 11/09 A2966 RMK AO2
                 SFC VIS 4 LTG DSNT NE-SE P0002 T01110094 =
2015-03-26 19:54 METAR KRDG 262354Z 01007KT 3SM VCTS +RA BR FEW008 SCT032 OVC039 12/10 A2964 RMK
                 AO2 PK WND 34027/2257 LTG DSNT NE-SE RAB09 TSB02E43 SLP045 P0057 60057 T01170100
                 10189 20094 50030 =
2015-03-26 19:49 METAR KRDG 262349Z 36007KT 3SM VCTS +RA BR FEW010 FEW023 OVC029 12/10 A2964 RMK
                 AO2 PK WND 34027/2257 LTG DSNT NE-SE RAB09 TSB02E43 P0055 =
2015-03-26 19:40 METAR KRDG 262340Z 32012KT 3SM +TSRA BR FEW008 BKN020 OVC030 12/11 A2966 RMK AO2
                 PK WND 34027/2257 LTG DSNT NE AND S RAB09 TSB02 PRESRR P0049 T01170106 =
2015-03-26 19:30 METAR KRDG 262330Z 36012KT 2SM R36/5000VP6000FT +TSRA BR FEW010 BKN020 OVC035
                 12/11 A2963 RMK AO2 PK WND 34027/2257 LTG DSNT ALQDS RAB09 TSB02 P0041 T01220106
                 =
2015-03-26 19:08 METAR KRDG 262308Z 8SM TS BKN020 OVC026 14/10 A2961 RMK AO2 PK WND 34027/2257
                 LTG DSNT SW-N TSB02 PRESRR T01390100 =
2015-03-26 18:54 METAR KRDG 262254Z 36011KT 10SM VCTS OVC026 15/12 A2957 RMK AO2 LTG DSNT W AND
                 NW SLP019 T01500122 =
2015-03-26 18:42 METAR KRDG 262242Z 36004KT 10SM BKN026 OVC080 17/14 A2956 RMK AO2 LTG DSNT W AND
                 NW T01720139 =
2015-03-26 18:21 METAR KRDG 262221Z 16004KT 10SM SCT022 BKN080 18/14 A2954 =
2015-03-26 17:54 METAR KRDG 262154Z 17008KT 10SM OVC019 18/14 A2955 RMK AO2 PRESFR SLP013
                 T01830144 =
2015-03-26 17:16 METAR KRDG 262116Z 18012G19KT 10SM BKN015 OVC024 18/14 A2959 RMK AO2 T01780144 =
2015-03-26 16:54 METAR KRDG 262054Z 19009G16KT 5SM HZ OVC013 17/14 A2961 RMK AO2 SLP032 T01720139
                 56042 =
2015-03-26 15:54 METAR KRDG 261954Z 18004KT 2 1/2SM HZ OVC010 16/13 A2964 RMK AO2 SFC VIS 6
                 SLP041 T01610133 =
2015-03-26 15:47 METAR KRDG 261947Z 17003KT 2 1/2SM HZ OVC010 15/12 A2964 RMK AO2 SFC VIS 5
                 T01500122 =
2015-03-26 15:14 METAR KRDG 261914Z 10003KT 2 1/2SM BR OVC009 12/10 A2965 RMK AO2 SFC VIS 5
                 T01220100 =
2015-03-26 14:54 METAR KRDG 261854Z 00000KT 2 1/2SM BR OVC010 11/08 A2967 RMK AO2 SFC VIS 4
                 PRESFR SLP054 T01060083 =
2015-03-26 14:04 METAR KRDG 261804Z 36006KT 2SM BR OVC010 09/07 A2972 RMK AO2 SFC VIS 4 CIG
                 006V013 T00940072 =
2015-03-26 13:54 METAR KRDG 261754Z 35006KT 2SM BR OVC008 09/07 A2973 RMK AO2 SFC VIS 4 RAB24E40
                 CIG 006V013 SLP075 P0000 60003 T00940072 10094 20011 56049 =
2015-03-26 13:33 METAR KRDG 261733Z 01003KT 2SM -RA BR OVC008 09/07 A2974 RMK AO2 SFC VIS 3 RAB24
                 CIG 006V011 P0000 T00940072 =
2015-03-26 12:54 METAR KRDG 261654Z 34006KT 2 1/2SM BR BKN014 BKN028 OVC050 08/07 A2977 =
2015-03-26 12:19 METAR KRDG 261619Z 01003KT 2 1/2SM -RA BR FEW017 BKN031 OVC070 07/05 A2980 RMK
                 AO2 SFC VIS 5 PRESFR P0000 T00720050 =
2015-03-26 12:03 METAR KRDG 261603Z 02003KT 2 1/2SM -RA BR BKN015 OVC030 07/04 A2983 RMK AO2 SFC
                 VIS 4 P0000 T00670044 =
2015-03-26 11:54 METAR KRDG 261554Z AUTO 00000KT 4SM -RA BKN015 BKN038 OVC070 07/04 A2984 RMK AO2
                 RAE14B37 SLP110 P0001 T00670039 =
2015-03-26 10:54 METAR KRDG 261454Z AUTO 33003KT 6SM -RA OVC018 06/02 A2988 RMK AO2 RAB48 SLP125
                 P0000 60000 T00560022 58023 =
2015-03-26 09:54 METAR KRDG 261354Z AUTO 00000KT 5SM BR OVC017 03/01 A2991 RMK AO2 SLP136
                 T00330011 =
2015-03-26 08:54 METAR KRDG 261254Z AUTO 36003KT 4SM BR OVC019 02/01 A2994 RMK AO2 SLP145
                 T00220006 =
2015-03-26 08:28 METAR KRDG 261228Z AUTO 00000KT 3SM BR OVC019 02/00 A2994 RMK AO2 T00170000 =
2015-03-26 08:12 METAR KRDG 261212Z AUTO 00000KT 2 1/2SM BR OVC019 01/01 A2995 RMK AO2 T00110006
                 =
2015-03-26 08:03 METAR KRDG 261203Z AUTO 00000KT 3SM BR OVC021 02/01 A2995 RMK AO2 T00170006 =
2015-03-26 07:54 METAR KRDG 261154Z AUTO 27003KT 2 1/2SM BR BKN021 BKN029 01/00 A2995 RMK AO2
                 SLP149 70003 T00110000 10033 20000 56021 =

Support USWX by starting your Amazon purchase here.